sensor_id;sensor_type;location;lat;lon;timestamp;P1;durP1;ratioP1;P2;durP2;ratioP2
8038;SDS011;4062;49.844;8.120;2022-09-12T00:00:22;0.50;;;0.50;;
8038;SDS011;4062;49.844;8.120;2022-09-12T00:02:24;0.50;;;0.40;;
8038;SDS011;4062;49.844;8.120;2022-09-12T00:04:25;0.50;;;0.40;;
8038;SDS011;4062;49.844;8.120;2022-09-12T00:06:28;0.50;;;0.50;;
8038;SDS011;4062;49.844;8.120;2022-09-12T00:08:35;0.50;;;0.40;;
8038;SDS011;4062;49.844;8.120;2022-09-12T00:10:37;0.40;;;0.30;;
8038;SDS011;4062;49.844;8.120;2022-09-12T00:12:42;0.50;;;0.40;;
8038;SDS011;4062;49.844;8.120;2022-09-12T00:14:43;0.50;;;0.30;;
8038;SDS011;4062;49.844;8.120;2022-09-12T00:16:44;0.50;;;0.30;;
8038;SDS011;4062;49.844;8.120;2022-09-12T00:18:45;0.50;;;0.40;;
8038;SDS011;4062;49.844;8.120;2022-09-12T00:20:46;0.47;;;0.30;;
8038;SDS011;4062;49.844;8.120;2022-09-12T00:22:47;0.50;;;0.40;;
8038;SDS011;4062;49.844;8.120;2022-09-12T00:24:48;0.50;;;0.40;;
8038;SDS011;4062;49.844;8.120;2022-09-12T00:26:48;0.50;;;0.50;;
8038;SDS011;4062;49.844;8.120;2022-09-12T00:28:49;0.50;;;0.50;;
8038;SDS011;4062;49.844;8.120;2022-09-12T00:30:50;0.50;;;0.40;;
8038;SDS011;4062;49.844;8.120;2022-09-12T00:32:51;0.50;;;0.40;;
8038;SDS011;4062;49.844;8.120;2022-09-12T00:34:53;0.40;;;0.30;;
8038;SDS011;4062;49.844;8.120;2022-09-12T00:36:54;0.50;;;0.40;;
8038;SDS011;4062;49.844;8.120;2022-09-12T00:38:55;0.50;;;0.50;;
8038;SDS011;4062;49.844;8.120;2022-09-12T00:40:56;0.40;;;0.30;;
8038;SDS011;4062;49.844;8.120;2022-09-12T00:42:56;0.40;;;0.30;;
8038;SDS011;4062;49.844;8.120;2022-09-12T00:44:59;0.50;;;0.40;;
8038;SDS011;4062;49.844;8.120;2022-09-12T00:47:02;0.50;;;0.37;;
8038;SDS011;4062;49.844;8.120;2022-09-12T00:49:23;0.50;;;0.50;;
8038;SDS011;4062;49.844;8.120;2022-09-12T00:51:28;0.50;;;0.40;;
8038;SDS011;4062;49.844;8.120;2022-09-12T00:53:32;0.50;;;0.43;;
8038;SDS011;4062;49.844;8.120;2022-09-12T00:55:40;0.50;;;0.50;;
8038;SDS011;4062;49.844;8.120;2022-09-12T00:57:53;0.57;;;0.50;;
8038;SDS011;4062;49.844;8.120;2022-09-12T01:00:00;0.47;;;0.37;;
8038;SDS011;4062;49.844;8.120;2022-09-12T01:02:14;0.50;;;0.40;;
8038;SDS011;4062;49.844;8.120;2022-09-12T01:04:16;0.50;;;0.40;;
8038;SDS011;4062;49.844;8.120;2022-09-12T01:06:27;0.50;;;0.37;;
8038;SDS011;4062;49.844;8.120;2022-09-12T01:08:34;0.50;;;0.40;;
8038;SDS011;4062;49.844;8.120;2022-09-12T01:10:36;0.50;;;0.40;;
8038;SDS011;4062;49.844;8.120;2022-09-12T01:12:40;0.50;;;0.40;;
8038;SDS011;4062;49.844;8.120;2022-09-12T01:14:42;0.50;;;0.40;;
8038;SDS011;4062;49.844;8.120;2022-09-12T01:16:43;0.40;;;0.40;;
8038;SDS011;4062;49.844;8.120;2022-09-12T01:21:53;0.50;;;0.47;;
8038;SDS011;4062;49.844;8.120;2022-09-12T01:24:52;0.40;;;0.30;;
8038;SDS011;4062;49.844;8.120;2022-09-12T01:27:28;0.50;;;0.40;;
8038;SDS011;4062;49.844;8.120;2022-09-12T01:36:33;0.50;;;0.40;;
8038;SDS011;4062;49.844;8.120;2022-09-12T01:38:56;0.50;;;0.30;;
8038;SDS011;4062;49.844;8.120;2022-09-12T01:41:14;0.50;;;0.30;;
8038;SDS011;4062;49.844;8.120;2022-09-12T01:43:32;0.50;;;0.40;;
8038;SDS011;4062;49.844;8.120;2022-09-12T01:46:33;0.50;;;0.43;;
8038;SDS011;4062;49.844;8.120;2022-09-12T01:48:23;0.50;;;0.50;;
8038;SDS011;4062;49.844;8.120;2022-09-12T01:50:31;0.57;;;0.50;;
8038;SDS011;4062;49.844;8.120;2022-09-12T01:52:46;0.50;;;0.40;;
8038;SDS011;4062;49.844;8.120;2022-09-12T01:55:16;0.50;;;0.47;;
8038;SDS011;4062;49.844;8.120;2022-09-12T01:57:48;0.50;;;0.40;;
8038;SDS011;4062;49.844;8.120;2022-09-12T02:00:22;0.40;;;0.40;;
8038;SDS011;4062;49.844;8.120;2022-09-12T02:02:32;0.40;;;0.30;;
8038;SDS011;4062;49.844;8.120;2022-09-12T02:05:01;0.40;;;0.30;;
8038;SDS011;4062;49.844;8.120;2022-09-12T02:07:15;0.40;;;0.40;;
8038;SDS011;4062;49.844;8.120;2022-09-12T02:09:32;0.40;;;0.40;;
8038;SDS011;4062;49.844;8.120;2022-09-12T02:11:39;0.50;;;0.40;;
8038;SDS011;4062;49.844;8.120;2022-09-12T02:13:53;0.50;;;0.40;;
8038;SDS011;4062;49.844;8.120;2022-09-12T02:16:08;0.50;;;0.47;;
8038;SDS011;4062;49.844;8.120;2022-09-12T02:18:15;0.50;;;0.50;;
8038;SDS011;4062;49.844;8.120;2022-09-12T02:20:19;0.50;;;0.50;;
8038;SDS011;4062;49.844;8.120;2022-09-12T02:22:26;0.60;;;0.30;;
8038;SDS011;4062;49.844;8.120;2022-09-12T02:24:30;0.60;;;0.60;;
8038;SDS011;4062;49.844;8.120;2022-09-12T02:26:49;0.50;;;0.40;;
8038;SDS011;4062;49.844;8.120;2022-09-12T02:29:00;0.40;;;0.40;;
8038;SDS011;4062;49.844;8.120;2022-09-12T02:33:42;0.40;;;0.30;;
8038;SDS011;4062;49.844;8.120;2022-09-12T02:36:02;0.50;;;0.47;;
8038;SDS011;4062;49.844;8.120;2022-09-12T02:40:34;0.50;;;0.47;;
8038;SDS011;4062;49.844;8.120;2022-09-12T02:42:36;0.50;;;0.40;;
8038;SDS011;4062;49.844;8.120;2022-09-12T02:44:37;0.50;;;0.40;;
8038;SDS011;4062;49.844;8.120;2022-09-12T02:46:39;0.40;;;0.30;;
8038;SDS011;4062;49.844;8.120;2022-09-12T02:48:43;0.43;;;0.40;;
8038;SDS011;4062;49.844;8.120;2022-09-12T02:50:44;0.60;;;0.60;;
8038;SDS011;4062;49.844;8.120;2022-09-12T02:52:46;0.50;;;0.50;;
8038;SDS011;4062;49.844;8.120;2022-09-12T02:54:47;0.40;;;0.40;;
8038;SDS011;4062;49.844;8.120;2022-09-12T02:56:49;0.50;;;0.50;;
8038;SDS011;4062;49.844;8.120;2022-09-12T02:58:50;0.50;;;0.50;;
8038;SDS011;4062;49.844;8.120;2022-09-12T03:03:43;0.50;;;0.40;;
8038;SDS011;4062;49.844;8.120;2022-09-12T03:06:42;0.50;;;0.30;;
8038;SDS011;4062;49.844;8.120;2022-09-12T03:09:14;0.50;;;0.40;;
8038;SDS011;4062;49.844;8.120;2022-09-12T03:14:44;0.50;;;0.30;;
8038;SDS011;4062;49.844;8.120;2022-09-12T03:17:42;0.50;;;0.43;;
8038;SDS011;4062;49.844;8.120;2022-09-12T03:22:53;0.50;;;0.40;;
8038;SDS011;4062;49.844;8.120;2022-09-12T03:25:05;0.40;;;0.30;;
8038;SDS011;4062;49.844;8.120;2022-09-12T03:29:48;0.40;;;0.30;;
8038;SDS011;4062;49.844;8.120;2022-09-12T03:31:51;0.40;;;0.40;;
8038;SDS011;4062;49.844;8.120;2022-09-12T03:33:55;0.50;;;0.40;;
8038;SDS011;4062;49.844;8.120;2022-09-12T03:35:58;0.40;;;0.30;;
8038;SDS011;4062;49.844;8.120;2022-09-12T03:37:58;0.43;;;0.40;;
8038;SDS011;4062;49.844;8.120;2022-09-12T03:39:59;0.50;;;0.47;;
8038;SDS011;4062;49.844;8.120;2022-09-12T03:42:00;0.50;;;0.30;;
8038;SDS011;4062;49.844;8.120;2022-09-12T03:44:01;0.40;;;0.30;;
8038;SDS011;4062;49.844;8.120;2022-09-12T03:46:02;0.50;;;0.40;;
8038;SDS011;4062;49.844;8.120;2022-09-12T03:48:03;0.50;;;0.50;;
8038;SDS011;4062;49.844;8.120;2022-09-12T03:50:06;0.43;;;0.33;;
8038;SDS011;4062;49.844;8.120;2022-09-12T03:52:07;0.50;;;0.40;;
8038;SDS011;4062;49.844;8.120;2022-09-12T03:54:07;0.50;;;0.40;;
8038;SDS011;4062;49.844;8.120;2022-09-12T03:56:10;0.50;;;0.40;;
8038;SDS011;4062;49.844;8.120;2022-09-12T03:58:11;0.50;;;0.40;;
8038;SDS011;4062;49.844;8.120;2022-09-12T04:00:12;0.50;;;0.40;;
8038;SDS011;4062;49.844;8.120;2022-09-12T04:02:13;0.50;;;0.40;;
8038;SDS011;4062;49.844;8.120;2022-09-12T04:04:13;0.50;;;0.40;;
8038;SDS011;4062;49.844;8.120;2022-09-12T04:06:15;0.40;;;0.37;;
8038;SDS011;4062;49.844;8.120;2022-09-12T04:08:21;0.50;;;0.43;;
8038;SDS011;4062;49.844;8.120;2022-09-12T04:10:21;0.50;;;0.40;;
8038;SDS011;4062;49.844;8.120;2022-09-12T04:12:22;0.40;;;0.30;;
8038;SDS011;4062;49.844;8.120;2022-09-12T04:14:23;0.47;;;0.40;;
8038;SDS011;4062;49.844;8.120;2022-09-12T04:16:24;0.50;;;0.40;;
8038;SDS011;4062;49.844;8.120;2022-09-12T04:18:25;0.50;;;0.40;;
8038;SDS011;4062;49.844;8.120;2022-09-12T04:20:26;0.50;;;0.40;;
8038;SDS011;4062;49.844;8.120;2022-09-12T04:22:27;0.50;;;0.40;;
8038;SDS011;4062;49.844;8.120;2022-09-12T04:24:28;0.40;;;0.40;;
8038;SDS011;4062;49.844;8.120;2022-09-12T04:26:29;0.40;;;0.33;;
8038;SDS011;4062;49.844;8.120;2022-09-12T04:28:31;0.50;;;0.50;;
8038;SDS011;4062;49.844;8.120;2022-09-12T04:30:33;0.50;;;0.40;;
8038;SDS011;4062;49.844;8.120;2022-09-12T04:32:35;0.50;;;0.40;;
8038;SDS011;4062;49.844;8.120;2022-09-12T04:34:35;0.40;;;0.30;;
8038;SDS011;4062;49.844;8.120;2022-09-12T04:36:36;0.40;;;0.30;;
8038;SDS011;4062;49.844;8.120;2022-09-12T04:38:37;0.50;;;0.50;;
8038;SDS011;4062;49.844;8.120;2022-09-12T04:40:38;0.50;;;0.40;;
8038;SDS011;4062;49.844;8.120;2022-09-12T04:42:39;0.40;;;0.30;;
8038;SDS011;4062;49.844;8.120;2022-09-12T04:44:39;0.50;;;0.30;;
8038;SDS011;4062;49.844;8.120;2022-09-12T04:46:42;0.40;;;0.40;;
8038;SDS011;4062;49.844;8.120;2022-09-12T04:48:45;0.50;;;0.50;;
8038;SDS011;4062;49.844;8.120;2022-09-12T04:50:47;0.40;;;0.30;;
8038;SDS011;4062;49.844;8.120;2022-09-12T04:52:51;0.50;;;0.40;;
8038;SDS011;4062;49.844;8.120;2022-09-12T04:54:53;0.50;;;0.40;;
8038;SDS011;4062;49.844;8.120;2022-09-12T04:56:53;0.50;;;0.40;;
8038;SDS011;4062;49.844;8.120;2022-09-12T04:58:58;0.50;;;0.30;;
8038;SDS011;4062;49.844;8.120;2022-09-12T05:01:10;0.40;;;0.30;;
8038;SDS011;4062;49.844;8.120;2022-09-12T05:03:22;0.50;;;0.40;;
8038;SDS011;4062;49.844;8.120;2022-09-12T05:05:22;0.50;;;0.40;;
8038;SDS011;4062;49.844;8.120;2022-09-12T05:07:23;0.50;;;0.40;;
8038;SDS011;4062;49.844;8.120;2022-09-12T05:09:24;0.50;;;0.40;;
8038;SDS011;4062;49.844;8.120;2022-09-12T05:11:25;0.40;;;0.30;;
8038;SDS011;4062;49.844;8.120;2022-09-12T05:13:29;0.40;;;0.30;;
8038;SDS011;4062;49.844;8.120;2022-09-12T05:15:31;0.50;;;0.40;;
8038;SDS011;4062;49.844;8.120;2022-09-12T05:17:33;0.43;;;0.37;;
8038;SDS011;4062;49.844;8.120;2022-09-12T05:19:34;0.50;;;0.40;;
8038;SDS011;4062;49.844;8.120;2022-09-12T05:21:35;0.50;;;0.30;;
8038;SDS011;4062;49.844;8.120;2022-09-12T05:23:37;0.50;;;0.40;;
8038;SDS011;4062;49.844;8.120;2022-09-12T05:25:38;0.40;;;0.37;;
8038;SDS011;4062;49.844;8.120;2022-09-12T05:27:39;0.50;;;0.30;;
8038;SDS011;4062;49.844;8.120;2022-09-12T05:29:39;0.50;;;0.50;;
8038;SDS011;4062;49.844;8.120;2022-09-12T05:31:41;0.50;;;0.50;;
8038;SDS011;4062;49.844;8.120;2022-09-12T05:33:43;0.50;;;0.40;;
8038;SDS011;4062;49.844;8.120;2022-09-12T05:35:50;0.50;;;0.50;;
8038;SDS011;4062;49.844;8.120;2022-09-12T05:37:51;0.40;;;0.40;;
8038;SDS011;4062;49.844;8.120;2022-09-12T05:39:52;0.50;;;0.47;;
8038;SDS011;4062;49.844;8.120;2022-09-12T05:41:53;0.50;;;0.40;;
8038;SDS011;4062;49.844;8.120;2022-09-12T05:44:04;0.43;;;0.40;;
8038;SDS011;4062;49.844;8.120;2022-09-12T05:46:16;0.40;;;0.40;;
8038;SDS011;4062;49.844;8.120;2022-09-12T05:48:19;0.50;;;0.47;;
8038;SDS011;4062;49.844;8.120;2022-09-12T05:50:23;0.50;;;0.40;;
8038;SDS011;4062;49.844;8.120;2022-09-12T05:52:24;0.60;;;0.60;;
8038;SDS011;4062;49.844;8.120;2022-09-12T05:54:25;0.50;;;0.40;;
8038;SDS011;4062;49.844;8.120;2022-09-12T05:56:27;0.50;;;0.40;;
8038;SDS011;4062;49.844;8.120;2022-09-12T05:58:30;0.87;;;0.40;;
8038;SDS011;4062;49.844;8.120;2022-09-12T06:00:32;0.50;;;0.40;;
8038;SDS011;4062;49.844;8.120;2022-09-12T06:02:32;0.50;;;0.40;;
8038;SDS011;4062;49.844;8.120;2022-09-12T06:04:33;0.50;;;0.50;;
8038;SDS011;4062;49.844;8.120;2022-09-12T06:06:35;0.60;;;0.50;;
8038;SDS011;4062;49.844;8.120;2022-09-12T06:08:41;0.50;;;0.43;;
8038;SDS011;4062;49.844;8.120;2022-09-12T06:10:44;0.50;;;0.40;;
8038;SDS011;4062;49.844;8.120;2022-09-12T06:12:45;0.50;;;0.40;;
8038;SDS011;4062;49.844;8.120;2022-09-12T06:14:46;0.77;;;0.77;;
8038;SDS011;4062;49.844;8.120;2022-09-12T06:16:47;0.57;;;0.57;;
8038;SDS011;4062;49.844;8.120;2022-09-12T06:18:50;0.40;;;0.40;;
8038;SDS011;4062;49.844;8.120;2022-09-12T06:20:54;0.80;;;0.50;;
8038;SDS011;4062;49.844;8.120;2022-09-12T06:22:55;0.60;;;0.60;;
8038;SDS011;4062;49.844;8.120;2022-09-12T06:24:56;1.03;;;1.03;;
8038;SDS011;4062;49.844;8.120;2022-09-12T06:26:57;0.50;;;0.50;;
8038;SDS011;4062;49.844;8.120;2022-09-12T06:28:58;0.70;;;0.60;;
8038;SDS011;4062;49.844;8.120;2022-09-12T06:31:00;0.50;;;0.50;;
8038;SDS011;4062;49.844;8.120;2022-09-12T06:33:10;0.60;;;0.60;;
8038;SDS011;4062;49.844;8.120;2022-09-12T06:35:11;0.50;;;0.50;;
8038;SDS011;4062;49.844;8.120;2022-09-12T06:37:12;0.50;;;0.50;;
8038;SDS011;4062;49.844;8.120;2022-09-12T06:39:14;0.50;;;0.40;;
8038;SDS011;4062;49.844;8.120;2022-09-12T06:41:18;0.60;;;0.60;;
8038;SDS011;4062;49.844;8.120;2022-09-12T06:43:18;0.50;;;0.50;;
8038;SDS011;4062;49.844;8.120;2022-09-12T06:45:19;0.63;;;0.63;;
8038;SDS011;4062;49.844;8.120;2022-09-12T06:47:20;1.00;;;0.50;;
8038;SDS011;4062;49.844;8.120;2022-09-12T06:49:21;0.53;;;0.50;;
8038;SDS011;4062;49.844;8.120;2022-09-12T06:51:21;0.70;;;0.70;;
8038;SDS011;4062;49.844;8.120;2022-09-12T06:53:24;0.50;;;0.50;;
8038;SDS011;4062;49.844;8.120;2022-09-12T06:55:26;0.70;;;0.70;;
8038;SDS011;4062;49.844;8.120;2022-09-12T06:57:27;0.50;;;0.40;;
8038;SDS011;4062;49.844;8.120;2022-09-12T06:59:29;0.77;;;0.77;;
8038;SDS011;4062;49.844;8.120;2022-09-12T07:01:30;0.50;;;0.50;;
8038;SDS011;4062;49.844;8.120;2022-09-12T07:03:31;0.50;;;0.50;;
8038;SDS011;4062;49.844;8.120;2022-09-12T07:05:33;0.60;;;0.60;;
8038;SDS011;4062;49.844;8.120;2022-09-12T07:07:34;0.70;;;0.70;;
8038;SDS011;4062;49.844;8.120;2022-09-12T07:09:35;0.77;;;0.77;;
8038;SDS011;4062;49.844;8.120;2022-09-12T07:11:36;0.50;;;0.40;;
8038;SDS011;4062;49.844;8.120;2022-09-12T07:13:39;0.57;;;0.57;;
8038;SDS011;4062;49.844;8.120;2022-09-12T07:15:42;0.57;;;0.50;;
8038;SDS011;4062;49.844;8.120;2022-09-12T07:17:42;0.93;;;0.80;;
8038;SDS011;4062;49.844;8.120;2022-09-12T07:19:43;0.50;;;0.50;;
8038;SDS011;4062;49.844;8.120;2022-09-12T07:21:44;0.70;;;0.70;;
8038;SDS011;4062;49.844;8.120;2022-09-12T07:23:45;0.60;;;0.60;;
8038;SDS011;4062;49.844;8.120;2022-09-12T07:25:52;0.60;;;0.60;;
8038;SDS011;4062;49.844;8.120;2022-09-12T07:27:56;0.70;;;0.70;;
8038;SDS011;4062;49.844;8.120;2022-09-12T07:29:56;1.03;;;1.03;;
8038;SDS011;4062;49.844;8.120;2022-09-12T07:31:57;0.60;;;0.60;;
8038;SDS011;4062;49.844;8.120;2022-09-12T07:34:03;0.60;;;0.60;;
8038;SDS011;4062;49.844;8.120;2022-09-12T07:36:06;0.40;;;0.40;;
8038;SDS011;4062;49.844;8.120;2022-09-12T07:38:15;0.53;;;0.53;;
8038;SDS011;4062;49.844;8.120;2022-09-12T07:40:16;0.50;;;0.50;;
8038;SDS011;4062;49.844;8.120;2022-09-12T07:42:16;0.67;;;0.67;;
8038;SDS011;4062;49.844;8.120;2022-09-12T07:44:17;0.50;;;0.47;;
8038;SDS011;4062;49.844;8.120;2022-09-12T07:46:18;1.50;;;0.97;;
8038;SDS011;4062;49.844;8.120;2022-09-12T07:48:19;0.63;;;0.63;;
8038;SDS011;4062;49.844;8.120;2022-09-12T07:50:20;1.07;;;1.07;;
8038;SDS011;4062;49.844;8.120;2022-09-12T07:52:20;0.83;;;0.83;;
8038;SDS011;4062;49.844;8.120;2022-09-12T07:54:21;1.73;;;1.63;;
8038;SDS011;4062;49.844;8.120;2022-09-12T07:56:23;0.97;;;0.97;;
8038;SDS011;4062;49.844;8.120;2022-09-12T07:58:25;1.13;;;1.00;;
8038;SDS011;4062;49.844;8.120;2022-09-12T08:00:25;0.60;;;0.60;;
8038;SDS011;4062;49.844;8.120;2022-09-12T08:02:34;0.80;;;0.80;;
8038;SDS011;4062;49.844;8.120;2022-09-12T08:04:35;0.80;;;0.80;;
8038;SDS011;4062;49.844;8.120;2022-09-12T08:06:36;0.93;;;0.93;;
8038;SDS011;4062;49.844;8.120;2022-09-12T08:08:37;0.83;;;0.83;;
8038;SDS011;4062;49.844;8.120;2022-09-12T08:10:37;1.03;;;1.03;;
8038;SDS011;4062;49.844;8.120;2022-09-12T08:12:38;0.90;;;0.90;;
8038;SDS011;4062;49.844;8.120;2022-09-12T08:14:39;1.10;;;1.10;;
8038;SDS011;4062;49.844;8.120;2022-09-12T08:16:40;0.90;;;0.90;;
8038;SDS011;4062;49.844;8.120;2022-09-12T08:18:41;0.97;;;0.97;;
8038;SDS011;4062;49.844;8.120;2022-09-12T08:20:42;1.00;;;1.00;;
8038;SDS011;4062;49.844;8.120;2022-09-12T08:22:43;0.60;;;0.60;;
8038;SDS011;4062;49.844;8.120;2022-09-12T08:24:44;0.87;;;0.87;;
8038;SDS011;4062;49.844;8.120;2022-09-12T08:26:45;1.00;;;1.00;;
8038;SDS011;4062;49.844;8.120;2022-09-12T08:28:46;0.97;;;0.97;;
8038;SDS011;4062;49.844;8.120;2022-09-12T08:30:46;0.90;;;0.90;;
8038;SDS011;4062;49.844;8.120;2022-09-12T08:32:47;0.80;;;0.80;;
8038;SDS011;4062;49.844;8.120;2022-09-12T08:34:48;0.60;;;0.60;;
8038;SDS011;4062;49.844;8.120;2022-09-12T08:36:49;0.90;;;0.90;;
8038;SDS011;4062;49.844;8.120;2022-09-12T08:38:52;0.90;;;0.90;;
8038;SDS011;4062;49.844;8.120;2022-09-12T08:41:02;0.80;;;0.80;;
8038;SDS011;4062;49.844;8.120;2022-09-12T08:43:31;0.70;;;0.70;;
8038;SDS011;4062;49.844;8.120;2022-09-12T08:45:58;0.80;;;0.80;;
8038;SDS011;4062;49.844;8.120;2022-09-12T08:48:12;0.80;;;0.80;;
8038;SDS011;4062;49.844;8.120;2022-09-12T08:50:17;0.70;;;0.70;;
8038;SDS011;4062;49.844;8.120;2022-09-12T08:52:24;0.63;;;0.60;;
8038;SDS011;4062;49.844;8.120;2022-09-12T08:54:34;0.70;;;0.57;;
8038;SDS011;4062;49.844;8.120;2022-09-12T08:56:35;0.90;;;0.90;;
8038;SDS011;4062;49.844;8.120;2022-09-12T08:58:41;0.50;;;0.50;;
8038;SDS011;4062;49.844;8.120;2022-09-12T09:00:57;0.60;;;0.60;;
8038;SDS011;4062;49.844;8.120;2022-09-12T09:06:17;0.90;;;0.90;;
8038;SDS011;4062;49.844;8.120;2022-09-12T09:13:32;0.50;;;0.40;;
8038;SDS011;4062;49.844;8.120;2022-09-12T09:18:28;0.80;;;0.80;;
8038;SDS011;4062;49.844;8.120;2022-09-12T09:20:53;0.70;;;0.70;;
8038;SDS011;4062;49.844;8.120;2022-09-12T09:23:02;0.60;;;0.60;;
8038;SDS011;4062;49.844;8.120;2022-09-12T09:25:35;0.83;;;0.83;;
8038;SDS011;4062;49.844;8.120;2022-09-12T09:27:55;0.60;;;0.60;;
8038;SDS011;4062;49.844;8.120;2022-09-12T09:30:26;0.80;;;0.50;;
8038;SDS011;4062;49.844;8.120;2022-09-12T09:32:34;0.83;;;0.83;;
8038;SDS011;4062;49.844;8.120;2022-09-12T09:34:39;0.83;;;0.83;;
8038;SDS011;4062;49.844;8.120;2022-09-12T09:36:48;0.80;;;0.80;;
8038;SDS011;4062;49.844;8.120;2022-09-12T09:39:11;0.70;;;0.70;;
8038;SDS011;4062;49.844;8.120;2022-09-12T09:44:00;0.57;;;0.57;;
8038;SDS011;4062;49.844;8.120;2022-09-12T09:46:01;0.80;;;0.60;;
8038;SDS011;4062;49.844;8.120;2022-09-12T09:50:11;0.50;;;0.50;;
8038;SDS011;4062;49.844;8.120;2022-09-12T09:52:23;0.60;;;0.60;;
8038;SDS011;4062;49.844;8.120;2022-09-12T09:54:33;0.73;;;0.73;;
8038;SDS011;4062;49.844;8.120;2022-09-12T09:56:43;0.80;;;0.80;;
8038;SDS011;4062;49.844;8.120;2022-09-12T09:58:44;0.80;;;0.80;;
8038;SDS011;4062;49.844;8.120;2022-09-12T10:00:45;0.70;;;0.70;;
8038;SDS011;4062;49.844;8.120;2022-09-12T10:05:28;0.83;;;0.83;;
8038;SDS011;4062;49.844;8.120;2022-09-12T10:07:31;0.63;;;0.63;;
8038;SDS011;4062;49.844;8.120;2022-09-12T10:09:32;1.00;;;1.00;;
8038;SDS011;4062;49.844;8.120;2022-09-12T10:11:35;0.63;;;0.60;;
8038;SDS011;4062;49.844;8.120;2022-09-12T10:13:39;0.90;;;0.90;;
8038;SDS011;4062;49.844;8.120;2022-09-12T10:15:55;4.40;;;1.80;;
8038;SDS011;4062;49.844;8.120;2022-09-12T10:18:05;1.53;;;1.50;;
8038;SDS011;4062;49.844;8.120;2022-09-12T10:20:27;1.80;;;1.80;;
8038;SDS011;4062;49.844;8.120;2022-09-12T10:22:45;1.47;;;1.47;;
8038;SDS011;4062;49.844;8.120;2022-09-12T10:24:47;3.13;;;2.27;;
8038;SDS011;4062;49.844;8.120;2022-09-12T10:26:57;9.97;;;2.60;;
8038;SDS011;4062;49.844;8.120;2022-09-12T10:29:15;1.63;;;1.63;;
8038;SDS011;4062;49.844;8.120;2022-09-12T10:31:43;1.63;;;1.60;;
8038;SDS011;4062;49.844;8.120;2022-09-12T10:33:55;1.63;;;1.53;;
8038;SDS011;4062;49.844;8.120;2022-09-12T10:35:58;1.57;;;1.00;;
8038;SDS011;4062;49.844;8.120;2022-09-12T10:38:00;1.63;;;1.33;;
8038;SDS011;4062;49.844;8.120;2022-09-12T10:40:06;1.37;;;1.30;;
8038;SDS011;4062;49.844;8.120;2022-09-12T10:44:56;4.60;;;1.50;;
8038;SDS011;4062;49.844;8.120;2022-09-12T10:46:57;1.33;;;1.23;;
8038;SDS011;4062;49.844;8.120;2022-09-12T10:49:13;1.10;;;1.10;;
8038;SDS011;4062;49.844;8.120;2022-09-12T10:53:24;2.00;;;1.80;;
8038;SDS011;4062;49.844;8.120;2022-09-12T10:55:29;1.20;;;1.20;;
8038;SDS011;4062;49.844;8.120;2022-09-12T11:02:15;1.20;;;1.20;;
8038;SDS011;4062;49.844;8.120;2022-09-12T11:15:11;1.60;;;1.50;;
8038;SDS011;4062;49.844;8.120;2022-09-12T11:17:34;1.20;;;1.20;;
8038;SDS011;4062;49.844;8.120;2022-09-12T11:25:17;1.70;;;1.60;;
8038;SDS011;4062;49.844;8.120;2022-09-12T11:30:09;1.73;;;1.10;;
8038;SDS011;4062;49.844;8.120;2022-09-12T11:37:33;1.30;;;1.30;;
8038;SDS011;4062;49.844;8.120;2022-09-12T11:40:02;1.30;;;1.30;;
8038;SDS011;4062;49.844;8.120;2022-09-12T11:42:29;0.70;;;0.70;;
8038;SDS011;4062;49.844;8.120;2022-09-12T11:44:45;1.47;;;1.10;;
8038;SDS011;4062;49.844;8.120;2022-09-12T11:46:55;1.20;;;1.10;;
8038;SDS011;4062;49.844;8.120;2022-09-12T11:51:16;0.70;;;0.70;;
8038;SDS011;4062;49.844;8.120;2022-09-12T11:53:28;1.07;;;0.90;;
8038;SDS011;4062;49.844;8.120;2022-09-12T11:55:39;0.93;;;0.93;;
8038;SDS011;4062;49.844;8.120;2022-09-12T11:57:57;1.20;;;1.20;;
8038;SDS011;4062;49.844;8.120;2022-09-12T12:00:06;0.90;;;0.90;;
8038;SDS011;4062;49.844;8.120;2022-09-12T12:02:20;1.53;;;1.53;;
8038;SDS011;4062;49.844;8.120;2022-09-12T12:04:37;1.50;;;1.50;;
8038;SDS011;4062;49.844;8.120;2022-09-12T12:06:56;0.80;;;0.80;;
8038;SDS011;4062;49.844;8.120;2022-09-12T12:09:10;1.50;;;1.50;;
8038;SDS011;4062;49.844;8.120;2022-09-12T12:11:54;1.20;;;1.20;;
8038;SDS011;4062;49.844;8.120;2022-09-12T12:13:47;2.40;;;1.93;;
8038;SDS011;4062;49.844;8.120;2022-09-12T12:16:29;1.23;;;1.13;;
8038;SDS011;4062;49.844;8.120;2022-09-12T12:18:37;1.30;;;1.30;;
8038;SDS011;4062;49.844;8.120;2022-09-12T12:20:39;1.37;;;1.37;;
8038;SDS011;4062;49.844;8.120;2022-09-12T12:22:49;1.30;;;1.30;;
8038;SDS011;4062;49.844;8.120;2022-09-12T12:24:53;0.97;;;0.97;;
8038;SDS011;4062;49.844;8.120;2022-09-12T12:27:44;0.80;;;0.80;;
8038;SDS011;4062;49.844;8.120;2022-09-12T12:29:52;1.10;;;1.10;;
8038;SDS011;4062;49.844;8.120;2022-09-12T12:34:01;1.27;;;1.27;;
8038;SDS011;4062;49.844;8.120;2022-09-12T12:36:06;1.27;;;1.27;;
8038;SDS011;4062;49.844;8.120;2022-09-12T12:38:25;1.20;;;1.20;;
8038;SDS011;4062;49.844;8.120;2022-09-12T12:40:37;0.90;;;0.90;;
8038;SDS011;4062;49.844;8.120;2022-09-12T12:46:58;1.77;;;1.67;;
8038;SDS011;4062;49.844;8.120;2022-09-12T12:49:25;1.00;;;1.00;;
8038;SDS011;4062;49.844;8.120;2022-09-12T12:54:25;1.00;;;1.00;;
8038;SDS011;4062;49.844;8.120;2022-09-12T12:58:40;1.07;;;1.07;;
8038;SDS011;4062;49.844;8.120;2022-09-12T13:00:42;1.10;;;1.10;;
8038;SDS011;4062;49.844;8.120;2022-09-12T13:02:49;1.00;;;1.00;;
8038;SDS011;4062;49.844;8.120;2022-09-12T13:04:55;0.67;;;0.67;;
8038;SDS011;4062;49.844;8.120;2022-09-12T13:07:05;0.90;;;0.90;;
8038;SDS011;4062;49.844;8.120;2022-09-12T13:09:30;1.40;;;1.30;;
8038;SDS011;4062;49.844;8.120;2022-09-12T13:11:43;0.83;;;0.83;;
8038;SDS011;4062;49.844;8.120;2022-09-12T13:15:50;1.30;;;1.30;;
8038;SDS011;4062;49.844;8.120;2022-09-12T13:17:52;1.43;;;1.43;;
8038;SDS011;4062;49.844;8.120;2022-09-12T13:20:13;0.70;;;0.70;;
8038;SDS011;4062;49.844;8.120;2022-09-12T13:22:21;1.60;;;1.50;;
8038;SDS011;4062;49.844;8.120;2022-09-12T13:24:23;0.87;;;0.87;;
8038;SDS011;4062;49.844;8.120;2022-09-12T13:26:24;1.40;;;1.30;;
8038;SDS011;4062;49.844;8.120;2022-09-12T13:28:26;1.30;;;1.20;;
8038;SDS011;4062;49.844;8.120;2022-09-12T13:30:38;1.67;;;1.57;;
8038;SDS011;4062;49.844;8.120;2022-09-12T13:32:42;0.90;;;0.90;;
8038;SDS011;4062;49.844;8.120;2022-09-12T13:35:01;1.10;;;1.10;;
8038;SDS011;4062;49.844;8.120;2022-09-12T13:39:45;1.30;;;1.30;;
8038;SDS011;4062;49.844;8.120;2022-09-12T13:42:16;1.47;;;1.47;;
8038;SDS011;4062;49.844;8.120;2022-09-12T13:44:41;1.23;;;1.13;;
8038;SDS011;4062;49.844;8.120;2022-09-12T13:47:12;0.60;;;0.60;;
8038;SDS011;4062;49.844;8.120;2022-09-12T13:49:27;1.03;;;0.93;;
8038;SDS011;4062;49.844;8.120;2022-09-12T13:51:34;1.07;;;1.07;;
8038;SDS011;4062;49.844;8.120;2022-09-12T13:53:44;1.00;;;1.00;;
8038;SDS011;4062;49.844;8.120;2022-09-12T13:55:48;1.00;;;1.00;;
8038;SDS011;4062;49.844;8.120;2022-09-12T13:57:59;0.93;;;0.93;;
8038;SDS011;4062;49.844;8.120;2022-09-12T14:00:09;0.90;;;0.90;;
8038;SDS011;4062;49.844;8.120;2022-09-12T14:02:19;0.70;;;0.70;;
8038;SDS011;4062;49.844;8.120;2022-09-12T14:04:23;1.13;;;1.03;;
8038;SDS011;4062;49.844;8.120;2022-09-12T14:06:45;1.03;;;1.03;;
8038;SDS011;4062;49.844;8.120;2022-09-12T14:08:48;1.00;;;1.00;;
8038;SDS011;4062;49.844;8.120;2022-09-12T14:10:50;0.90;;;0.87;;
8038;SDS011;4062;49.844;8.120;2022-09-12T14:12:51;1.37;;;1.00;;
8038;SDS011;4062;49.844;8.120;2022-09-12T14:14:52;0.70;;;0.70;;
8038;SDS011;4062;49.844;8.120;2022-09-12T14:16:53;1.10;;;1.10;;
8038;SDS011;4062;49.844;8.120;2022-09-12T14:18:53;1.10;;;1.10;;
8038;SDS011;4062;49.844;8.120;2022-09-12T14:20:55;1.00;;;1.00;;
8038;SDS011;4062;49.844;8.120;2022-09-12T14:23:02;0.90;;;0.90;;
8038;SDS011;4062;49.844;8.120;2022-09-12T14:25:33;0.77;;;0.77;;
8038;SDS011;4062;49.844;8.120;2022-09-12T14:27:41;0.93;;;0.93;;
8038;SDS011;4062;49.844;8.120;2022-09-12T14:30:05;1.00;;;1.00;;
8038;SDS011;4062;49.844;8.120;2022-09-12T14:32:21;1.03;;;1.03;;
8038;SDS011;4062;49.844;8.120;2022-09-12T14:34:23;0.90;;;0.90;;
8038;SDS011;4062;49.844;8.120;2022-09-12T14:36:30;1.27;;;1.00;;
8038;SDS011;4062;49.844;8.120;2022-09-12T14:38:36;1.00;;;1.00;;
8038;SDS011;4062;49.844;8.120;2022-09-12T14:40:43;1.07;;;1.07;;
8038;SDS011;4062;49.844;8.120;2022-09-12T14:42:50;1.00;;;1.00;;
8038;SDS011;4062;49.844;8.120;2022-09-12T14:44:55;0.90;;;0.90;;
8038;SDS011;4062;49.844;8.120;2022-09-12T14:49:43;1.10;;;1.10;;